createdAt,value
2019-02-20T00:00:10.764Z,1014.17
2019-02-20T00:01:10.762Z,1014.15
2019-02-20T00:02:10.736Z,1014.12
2019-02-20T00:03:10.724Z,1014.15
2019-02-20T00:04:10.750Z,1014.22
2019-02-20T00:05:10.701Z,1014.21
2019-02-20T00:06:10.709Z,1014.21
2019-02-20T00:07:10.677Z,1014.17
2019-02-20T00:08:10.709Z,1014.23
2019-02-20T00:09:10.702Z,1014.16
2019-02-20T00:10:10.713Z,1014.14
2019-02-20T00:11:10.681Z,1014.22
2019-02-20T00:12:10.630Z,1014.21
2019-02-20T00:13:10.611Z,1014.17
2019-02-20T00:14:10.615Z,1014.22
2019-02-20T00:15:10.627Z,1014.24
2019-02-20T00:16:10.596Z,1014.22
2019-02-20T00:17:10.591Z,1014.25
2019-02-20T00:18:10.583Z,1014.26
2019-02-20T00:19:10.588Z,1014.29
2019-02-20T00:20:10.542Z,1014.28
2019-02-20T00:21:10.561Z,1014.32
2019-02-20T00:22:10.550Z,1014.29
2019-02-20T00:23:10.514Z,1014.28
2019-02-20T00:24:10.506Z,1014.28
2019-02-20T00:25:10.510Z,1014.33
2019-02-20T00:26:10.479Z,1014.37
2019-02-20T00:27:10.461Z,1014.35
2019-02-20T00:29:11.578Z,1014.34
2019-02-20T00:30:10.489Z,1014.36
2019-02-20T00:31:10.426Z,1014.37
2019-02-20T00:32:10.421Z,1014.30
2019-02-20T00:33:10.400Z,1014.31
2019-02-20T00:34:10.394Z,1014.35
2019-02-20T00:35:10.411Z,1014.40
2019-02-20T00:36:10.435Z,1014.36
2019-02-20T00:37:10.358Z,1014.41
2019-02-20T00:38:10.384Z,1014.39
2019-02-20T00:39:10.345Z,1014.35
2019-02-20T00:40:10.386Z,1014.43
2019-02-20T00:41:10.345Z,1014.36
2019-02-20T00:42:10.309Z,1014.38
2019-02-20T00:43:10.291Z,1014.40
2019-02-20T00:44:10.294Z,1014.39
2019-02-20T00:45:10.323Z,1014.43
2019-02-20T00:46:10.268Z,1014.37
2019-02-20T00:47:10.256Z,1014.32
2019-02-20T00:48:10.244Z,1014.39
2019-02-20T00:49:10.244Z,1014.29
2019-02-20T00:50:10.230Z,1014.29
2019-02-20T00:51:10.235Z,1014.32
2019-02-20T00:52:10.209Z,1014.36
2019-02-20T00:53:10.196Z,1014.33
2019-02-20T00:54:10.186Z,1014.36
2019-02-20T00:55:10.167Z,1014.32
2019-02-20T00:56:10.185Z,1014.37
2019-02-20T00:57:10.152Z,1014.36
2019-02-20T00:58:10.151Z,1014.40
2019-02-20T00:59:10.139Z,1014.36
2019-02-20T01:00:10.120Z,1014.41
2019-02-20T01:01:10.128Z,1014.35
2019-02-20T01:02:10.131Z,1014.28
2019-02-20T01:03:10.108Z,1014.35
2019-02-20T01:04:10.080Z,1014.27
2019-02-20T01:05:10.059Z,1014.29
2019-02-20T01:06:10.083Z,1014.27
2019-02-20T01:07:10.037Z,1014.33
2019-02-20T01:08:10.032Z,1014.31
2019-02-20T01:09:10.040Z,1014.26
2019-02-20T01:10:10.025Z,1014.38
2019-02-20T01:11:10.022Z,1014.37
2019-02-20T01:12:09.989Z,1014.31
2019-02-20T01:13:09.974Z,1014.39
2019-02-20T01:14:09.973Z,1014.37
2019-02-20T01:15:09.964Z,1014.40
2019-02-20T01:16:09.979Z,1014.39
2019-02-20T01:17:09.974Z,1014.35
2019-02-20T01:18:09.957Z,1014.43
2019-02-20T01:19:09.910Z,1014.41
2019-02-20T01:20:09.904Z,1014.36
2019-02-20T01:21:09.921Z,1014.42
2019-02-20T01:22:09.882Z,1014.45
2019-02-20T01:23:09.870Z,1014.45
2019-02-20T01:24:09.866Z,1014.41
2019-02-20T01:25:09.846Z,1014.49
2019-02-20T01:26:09.842Z,1014.49
2019-02-20T01:27:09.855Z,1014.46
2019-02-20T01:28:09.823Z,1014.51
2019-02-20T01:29:09.808Z,1014.41
2019-02-20T01:30:09.840Z,1014.44
2019-02-20T01:31:09.780Z,1014.45
2019-02-20T01:32:09.807Z,1014.43
2019-02-20T01:33:09.770Z,1014.45
2019-02-20T01:34:09.762Z,1014.45
2019-02-20T01:35:09.741Z,1014.44
2019-02-20T01:36:09.733Z,1014.43
2019-02-20T01:37:09.750Z,1014.39
2019-02-20T01:38:09.717Z,1014.44
2019-02-20T01:39:09.727Z,1014.32
2019-02-20T01:40:09.699Z,1014.34
2019-02-20T01:41:09.676Z,1014.36
2019-02-20T01:42:09.715Z,1014.30
2019-02-20T01:43:09.657Z,1014.37
2019-02-20T01:44:09.652Z,1014.35
2019-02-20T01:45:09.637Z,1014.35
2019-02-20T01:46:09.644Z,1014.29
2019-02-20T01:47:09.617Z,1014.32
2019-02-20T01:48:09.663Z,1014.32
2019-02-20T01:49:09.589Z,1014.29
2019-02-20T01:50:09.604Z,1014.28
2019-02-20T01:51:09.600Z,1014.33
2019-02-20T01:52:09.575Z,1014.34
2019-02-20T01:53:10.635Z,1014.33
2019-02-20T01:54:09.558Z,1014.37
2019-02-20T01:55:09.526Z,1014.36
2019-02-20T01:56:09.529Z,1014.39
2019-02-20T01:57:09.506Z,1014.37
2019-02-20T01:58:09.542Z,1014.32
2019-02-20T01:59:09.502Z,1014.29
2019-02-20T02:00:09.483Z,1014.34
2019-02-20T02:01:09.465Z,1014.33
2019-02-20T02:02:09.474Z,1014.37
2019-02-20T02:03:09.474Z,1014.37
2019-02-20T02:04:09.436Z,1014.34
2019-02-20T02:05:15.152Z,1014.41
2019-02-20T02:06:10.429Z,1014.42
2019-02-20T02:07:09.402Z,1014.38
2019-02-20T02:08:09.434Z,1014.45
2019-02-20T02:09:09.389Z,1014.42
2019-02-20T02:10:09.372Z,1014.35
2019-02-20T02:11:09.358Z,1014.34
2019-02-20T02:12:09.359Z,1014.38
2019-02-20T02:13:09.372Z,1014.40
2019-02-20T02:14:09.342Z,1014.45
2019-02-20T02:15:09.319Z,1014.43
2019-02-20T02:16:09.313Z,1014.40
2019-02-20T02:17:09.333Z,1014.35
2019-02-20T02:18:09.320Z,1014.36
2019-02-20T02:19:09.305Z,1014.35
2019-02-20T02:20:09.273Z,1014.41
2019-02-20T02:21:09.282Z,1014.40
2019-02-20T02:22:09.258Z,1014.40
2019-02-20T02:23:09.237Z,1014.33
2019-02-20T02:24:09.289Z,1014.38
2019-02-20T02:25:09.249Z,1014.33
2019-02-20T02:26:11.117Z,1014.35
2019-02-20T02:27:09.217Z,1014.34
2019-02-20T02:28:09.219Z,1014.31
2019-02-20T02:29:09.210Z,1014.35
2019-02-20T02:30:09.175Z,1014.37
2019-02-20T02:31:09.153Z,1014.39
2019-02-20T02:32:09.142Z,1014.30
2019-02-20T02:33:09.128Z,1014.36
2019-02-20T02:34:09.153Z,1014.26
2019-02-20T02:35:09.104Z,1014.33
2019-02-20T02:36:09.104Z,1014.30
2019-02-20T02:37:09.109Z,1014.24
2019-02-20T02:38:09.169Z,1014.27
2019-02-20T02:39:09.085Z,1014.26
2019-02-20T02:40:09.067Z,1014.30
2019-02-20T02:41:09.041Z,1014.22
2019-02-20T02:42:09.056Z,1014.23
2019-02-20T02:43:09.021Z,1014.22
2019-02-20T02:44:09.141Z,1014.24
2019-02-20T02:45:09.007Z,1014.23
2019-02-20T02:46:08.989Z,1014.20
2019-02-20T02:47:08.975Z,1014.18
2019-02-20T02:48:08.972Z,1014.16
2019-02-20T02:49:08.983Z,1014.20
2019-02-20T02:50:08.950Z,1014.19
2019-02-20T02:51:08.946Z,1014.19
2019-02-20T02:52:08.933Z,1014.15
2019-02-20T02:53:08.918Z,1014.14
2019-02-20T02:54:08.913Z,1014.13
2019-02-20T02:55:08.920Z,1014.17
2019-02-20T02:56:08.885Z,1014.15
2019-02-20T02:57:08.871Z,1014.11
2019-02-20T02:58:08.874Z,1014.17
2019-02-20T02:59:08.847Z,1014.15
2019-02-20T03:00:08.871Z,1014.17
2019-02-20T03:01:08.834Z,1014.19
2019-02-20T03:02:08.821Z,1014.14
2019-02-20T03:03:08.811Z,1014.20
2019-02-20T03:04:08.795Z,1014.14
2019-02-20T03:05:08.814Z,1014.18
2019-02-20T03:06:08.796Z,1014.16
2019-02-20T03:07:08.762Z,1014.09
2019-02-20T03:08:08.753Z,1014.15
2019-02-20T03:09:08.741Z,1014.16
2019-02-20T03:10:08.764Z,1014.18
2019-02-20T03:11:08.735Z,1014.16
2019-02-20T03:12:08.736Z,1014.24
2019-02-20T03:13:08.694Z,1014.18
2019-02-20T03:14:08.693Z,1014.17
2019-02-20T03:15:08.700Z,1014.17
2019-02-20T03:16:08.669Z,1014.18
2019-02-20T03:17:08.649Z,1014.23
2019-02-20T03:18:08.651Z,1014.22
2019-02-20T03:19:08.633Z,1014.25
2019-02-20T03:20:08.653Z,1014.24
2019-02-20T03:21:08.606Z,1014.28
2019-02-20T03:22:08.618Z,1014.29
2019-02-20T03:23:08.586Z,1014.21
2019-02-20T03:24:08.583Z,1014.20
2019-02-20T03:25:08.615Z,1014.19
2019-02-20T03:26:08.566Z,1014.17
2019-02-20T03:27:08.552Z,1014.23
2019-02-20T03:28:08.543Z,1014.17
2019-02-20T03:29:08.527Z,1014.17
2019-02-20T03:30:08.518Z,1014.23
2019-02-20T03:31:08.559Z,1014.21
2019-02-20T03:32:08.537Z,1014.19
2019-02-20T03:33:08.488Z,1014.19
2019-02-20T03:34:09.048Z,1014.25
2019-02-20T03:35:08.505Z,1014.22
2019-02-20T03:36:08.457Z,1014.21
2019-02-20T03:37:08.444Z,1014.22
2019-02-20T03:38:08.433Z,1014.21
2019-02-20T03:39:08.419Z,1014.21
2019-02-20T03:40:08.449Z,1014.19
2019-02-20T03:41:08.511Z,1014.25
2019-02-20T03:42:08.387Z,1014.22
2019-02-20T03:43:08.426Z,1014.27
2019-02-20T03:44:08.370Z,1014.20
2019-02-20T03:45:08.354Z,1014.25
2019-02-20T03:46:08.381Z,1014.24
2019-02-20T03:47:08.340Z,1014.28
2019-02-20T03:48:08.326Z,1014.21
2019-02-20T03:49:08.306Z,1014.17
2019-02-20T03:50:08.309Z,1014.25
2019-02-20T03:51:08.320Z,1014.26
2019-02-20T03:52:08.283Z,1014.27
2019-02-20T03:53:08.268Z,1014.29
2019-02-20T03:54:08.267Z,1014.33
2019-02-20T03:55:08.242Z,1014.28
2019-02-20T03:56:09.261Z,1014.31
2019-02-20T03:57:08.228Z,1014.29
2019-02-20T03:58:08.227Z,1014.25
2019-02-20T03:59:08.203Z,1014.27
2019-02-20T04:00:08.208Z,1014.29
2019-02-20T04:01:08.205Z,1014.26
2019-02-20T04:02:08.172Z,1014.25
2019-02-20T04:03:08.180Z,1014.25
2019-02-20T04:04:08.150Z,1014.30
2019-02-20T04:05:08.132Z,1014.30
2019-02-20T04:06:08.165Z,1014.33
2019-02-20T04:07:08.137Z,1014.30
2019-02-20T04:08:08.111Z,1014.26
2019-02-20T04:09:08.113Z,1014.34
2019-02-20T04:10:09.129Z,1014.33
2019-02-20T04:11:08.071Z,1014.31
2019-02-20T04:12:08.094Z,1014.33
2019-02-20T04:13:08.065Z,1014.39
2019-02-20T04:14:08.043Z,1014.38
2019-02-20T04:15:08.026Z,1014.39
2019-02-20T04:16:08.025Z,1014.40
2019-02-20T04:17:08.030Z,1014.37
2019-02-20T04:19:09.111Z,1014.34
2019-02-20T04:20:07.987Z,1014.40
2019-02-20T04:21:07.959Z,1014.32
2019-02-20T04:22:07.984Z,1014.31
2019-02-20T04:23:07.943Z,1014.29
2019-02-20T04:24:07.951Z,1014.29
2019-02-20T04:25:07.920Z,1014.27
2019-02-20T04:26:09.844Z,1014.32
2019-02-20T04:27:07.922Z,1014.27
2019-02-20T04:28:07.899Z,1014.26
2019-02-20T04:29:07.885Z,1014.32
2019-02-20T04:30:07.875Z,1014.33
2019-02-20T04:31:07.862Z,1014.33
2019-02-20T04:32:07.918Z,1014.31
2019-02-20T04:33:07.933Z,1014.35
2019-02-20T04:34:07.826Z,1014.31
2019-02-20T04:35:07.820Z,1014.38
2019-02-20T04:39:40.906Z,1014.32
2019-02-20T04:40:40.843Z,1014.26
2019-02-20T04:41:40.851Z,1014.29
2019-02-20T04:42:40.842Z,1014.31
2019-02-20T04:43:40.817Z,1014.31
2019-02-20T04:44:40.797Z,1014.28
2019-02-20T04:45:40.803Z,1014.28
2019-02-20T04:46:40.775Z,1014.31
2019-02-20T04:47:40.812Z,1014.29
2019-02-20T04:48:40.757Z,1014.35
2019-02-20T04:49:40.752Z,1014.24
2019-02-20T04:50:40.736Z,1014.33
2019-02-20T04:51:40.731Z,1014.35
2019-02-20T04:52:40.754Z,1014.34
2019-02-20T04:53:40.710Z,1014.35
2019-02-20T04:54:40.692Z,1014.35
2019-02-20T04:55:40.703Z,1014.36
2019-02-20T04:56:40.672Z,1014.34
2019-02-20T04:57:40.712Z,1014.34
2019-02-20T04:58:40.646Z,1014.28
2019-02-20T04:59:40.647Z,1014.36
2019-02-20T05:00:40.634Z,1014.34
2019-02-20T05:01:40.622Z,1014.25
2019-02-20T05:02:40.646Z,1014.32
2019-02-20T05:03:40.605Z,1014.26
2019-02-20T05:04:40.584Z,1014.36
2019-02-20T05:05:40.582Z,1014.30
2019-02-20T05:06:40.571Z,1014.29
2019-02-20T05:07:40.595Z,1014.35
2019-02-20T05:08:40.623Z,1014.35
2019-02-20T05:09:40.545Z,1014.29
2019-02-20T05:10:40.517Z,1014.35
2019-02-20T05:11:40.519Z,1014.37
2019-02-20T05:12:40.498Z,1014.39
2019-02-20T05:13:40.541Z,1014.46
2019-02-20T05:14:40.474Z,1014.43
2019-02-20T05:15:40.470Z,1014.42
2019-02-20T05:16:40.459Z,1014.37
2019-02-20T05:17:40.445Z,1014.44
2019-02-20T05:18:40.463Z,1014.40
2019-02-20T05:19:40.435Z,1014.36
2019-02-20T05:20:40.416Z,1014.35
2019-02-20T05:21:40.412Z,1014.40
2019-02-20T05:22:40.398Z,1014.36
2019-02-20T05:23:42.662Z,1014.44
2019-02-20T05:24:40.370Z,1014.42
2019-02-20T05:25:40.367Z,1014.44
2019-02-20T05:26:40.344Z,1014.47
2019-02-20T05:27:40.347Z,1014.41
2019-02-20T05:28:40.354Z,1014.43
2019-02-20T05:29:40.349Z,1014.40
2019-02-20T05:30:40.316Z,1014.43
2019-02-20T05:31:40.300Z,1014.42
2019-02-20T05:32:40.301Z,1014.44
2019-02-20T05:33:40.304Z,1014.50
2019-02-20T05:34:40.282Z,1014.42
2019-02-20T05:35:40.252Z,1014.43
2019-02-20T05:36:40.237Z,1014.36
2019-02-20T05:37:40.235Z,1014.31
2019-02-20T05:38:40.255Z,1014.31
2019-02-20T05:39:40.211Z,1014.35
2019-02-20T05:40:40.211Z,1014.36
2019-02-20T05:42:41.300Z,1014.37
2019-02-20T05:43:40.170Z,1014.35
2019-02-20T05:44:40.178Z,1014.39
2019-02-20T05:45:40.152Z,1014.36
2019-02-20T05:46:40.128Z,1014.36
2019-02-20T05:47:40.131Z,1014.37
2019-02-20T05:48:40.112Z,1014.34
2019-02-20T05:49:40.137Z,1014.34
2019-02-20T05:50:40.088Z,1014.29
2019-02-20T05:51:40.093Z,1014.32
2019-02-20T05:52:40.064Z,1014.33
2019-02-20T05:53:40.064Z,1014.36
2019-02-20T05:54:40.075Z,1014.39
2019-02-20T05:55:40.043Z,1014.38
2019-02-20T05:56:40.029Z,1014.34
2019-02-20T05:57:40.025Z,1014.37
2019-02-20T05:58:40.000Z,1014.34
2019-02-20T05:59:40.039Z,1014.40
2019-02-20T06:00:39.983Z,1014.39
2019-02-20T06:01:40.008Z,1014.33
2019-02-20T06:02:39.957Z,1014.38
2019-02-20T06:03:39.956Z,1014.34
2019-02-20T06:04:39.973Z,1014.35
2019-02-20T06:05:39.934Z,1014.38
2019-02-20T06:06:39.921Z,1014.39
2019-02-20T06:07:39.910Z,1014.44
2019-02-20T06:08:39.897Z,1014.42
2019-02-20T06:09:39.944Z,1014.42
2019-02-20T06:10:39.887Z,1014.45
2019-02-20T06:11:39.872Z,1014.44
2019-02-20T06:12:39.864Z,1014.44
2019-02-20T06:13:39.857Z,1014.42
2019-02-20T06:14:39.857Z,1014.46
2019-02-20T06:15:39.854Z,1014.52
2019-02-20T06:16:39.824Z,1014.51
2019-02-20T06:17:39.808Z,1014.51
2019-02-20T06:18:39.788Z,1014.50
2019-02-20T06:19:39.788Z,1014.51
2019-02-20T06:20:39.794Z,1014.47
2019-02-20T06:21:39.761Z,1014.56
2019-02-20T06:22:39.765Z,1014.53
2019-02-20T06:23:39.750Z,1014.53
2019-02-20T06:24:44.104Z,1014.50
2019-02-20T06:25:39.765Z,1014.59
2019-02-20T06:26:39.706Z,1014.57
2019-02-20T06:27:39.719Z,1014.63
2019-02-20T06:28:39.683Z,1014.54
2019-02-20T06:29:39.692Z,1014.60
2019-02-20T06:30:39.684Z,1014.62
2019-02-20T06:31:39.668Z,1014.68
2019-02-20T06:32:39.642Z,1014.66
2019-02-20T06:33:39.633Z,1014.74
2019-02-20T06:34:39.624Z,1014.69
2019-02-20T06:35:39.648Z,1014.69
2019-02-20T06:36:39.595Z,1014.72
2019-02-20T06:37:39.604Z,1014.69
2019-02-20T06:38:39.577Z,1014.76
2019-02-20T06:39:39.581Z,1014.68
2019-02-20T06:40:39.555Z,1014.76
2019-02-20T06:41:39.715Z,1014.75
2019-02-20T06:42:39.534Z,1014.72
2019-02-20T06:43:39.555Z,1014.76
2019-02-20T06:44:39.514Z,1014.71
2019-02-20T06:45:39.510Z,1014.74
2019-02-20T06:46:39.518Z,1014.75
2019-02-20T06:47:39.543Z,1014.80
2019-02-20T06:48:39.489Z,1014.72
2019-02-20T06:49:39.482Z,1014.82
2019-02-20T06:50:39.453Z,1014.81
2019-02-20T06:51:39.482Z,1014.86
2019-02-20T06:52:39.432Z,1014.79
2019-02-20T06:53:39.425Z,1014.87
2019-02-20T06:54:39.407Z,1014.87
2019-02-20T06:55:39.400Z,1014.90
2019-02-20T06:56:39.413Z,1014.88
2019-02-20T06:57:39.383Z,1014.88
2019-02-20T06:58:39.404Z,1014.85
2019-02-20T06:59:39.358Z,1014.91
2019-02-20T07:00:39.341Z,1014.91
2019-02-20T07:01:39.371Z,1014.93
2019-02-20T07:02:39.321Z,1014.93
2019-02-20T07:03:39.348Z,1014.91
2019-02-20T07:04:39.299Z,1014.95
2019-02-20T07:05:39.303Z,1014.93
2019-02-20T07:06:39.310Z,1015.00
2019-02-20T07:07:39.273Z,1015.00
2019-02-20T07:08:39.264Z,1014.95
2019-02-20T07:09:39.257Z,1014.97
2019-02-20T07:10:39.277Z,1014.90
2019-02-20T07:11:39.274Z,1014.97
2019-02-20T07:12:39.215Z,1014.98
2019-02-20T07:13:39.209Z,1015.11
2019-02-20T07:14:39.195Z,1015.02
2019-02-20T07:15:39.188Z,1015.11
2019-02-20T07:16:39.177Z,1015.11
2019-02-20T07:17:39.197Z,1015.12
2019-02-20T07:18:39.155Z,1015.11
2019-02-20T07:20:40.255Z,1015.12
2019-02-20T07:21:39.135Z,1015.12
2019-02-20T07:22:39.160Z,1015.17
2019-02-20T07:23:39.105Z,1015.17
2019-02-20T07:24:39.089Z,1015.20
2019-02-20T07:25:39.086Z,1015.22
2019-02-20T07:26:39.073Z,1015.19
2019-02-20T07:27:39.087Z,1015.16
2019-02-20T07:28:39.059Z,1015.25
2019-02-20T07:29:39.052Z,1015.24
2019-02-20T07:30:39.035Z,1015.30
2019-02-20T07:31:39.017Z,1015.26
2019-02-20T07:32:39.028Z,1015.21
2019-02-20T07:33:39.010Z,1015.28
2019-02-20T07:34:38.984Z,1015.26
2019-02-20T07:35:39.007Z,1015.30
2019-02-20T07:36:38.962Z,1015.33
2019-02-20T07:37:38.991Z,1015.32
2019-02-20T07:38:38.941Z,1015.36
2019-02-20T07:39:38.932Z,1015.31
2019-02-20T07:40:38.924Z,1015.33
2019-02-20T07:41:38.909Z,1015.33
2019-02-20T07:42:38.891Z,1015.37
2019-02-20T07:43:38.919Z,1015.35
2019-02-20T07:44:38.868Z,1015.35
2019-02-20T07:45:38.873Z,1015.40
2019-02-20T07:46:38.855Z,1015.40
2019-02-20T07:47:38.856Z,1015.40
2019-02-20T07:48:38.859Z,1015.43
2019-02-20T07:49:38.847Z,1015.45
2019-02-20T07:50:38.810Z,1015.44
2019-02-20T07:51:38.801Z,1015.47
2019-02-20T07:52:38.787Z,1015.47
2019-02-20T07:53:38.812Z,1015.50
2019-02-20T07:54:38.766Z,1015.57
2019-02-20T07:55:38.773Z,1015.57
2019-02-20T07:56:38.748Z,1015.53
2019-02-20T07:57:38.736Z,1015.53
2019-02-20T07:58:38.877Z,1015.59
2019-02-20T07:59:38.714Z,1015.57
2019-02-20T08:00:38.706Z,1015.58
2019-02-20T08:01:38.705Z,1015.61
2019-02-20T08:02:38.677Z,1015.60
2019-02-20T08:03:38.704Z,1015.61
2019-02-20T08:04:38.659Z,1015.64
2019-02-20T08:05:38.648Z,1015.67
2019-02-20T08:06:38.698Z,1015.62
2019-02-20T08:07:38.632Z,1015.66
2019-02-20T08:08:38.670Z,1015.67
2019-02-20T08:09:38.612Z,1015.73
2019-02-20T08:10:38.616Z,1015.71
2019-02-20T08:11:38.592Z,1015.82
2019-02-20T08:12:38.567Z,1015.77
2019-02-20T08:13:39.567Z,1015.83
2019-02-20T08:14:38.574Z,1015.81
2019-02-20T08:15:38.541Z,1015.80
2019-02-20T08:16:38.528Z,1015.80
2019-02-20T08:17:38.524Z,1015.84
2019-02-20T08:18:38.536Z,1015.87
2019-02-20T08:19:38.547Z,1015.97
2019-02-20T08:20:38.487Z,1015.90
2019-02-20T08:21:38.489Z,1015.89
2019-02-20T08:22:38.465Z,1015.98
2019-02-20T08:23:38.456Z,1015.98
2019-02-20T08:24:38.465Z,1015.91
2019-02-20T08:25:38.447Z,1015.93
2019-02-20T08:26:38.456Z,1016.00
2019-02-20T08:27:38.425Z,1015.95
2019-02-20T08:28:38.393Z,1015.92
2019-02-20T08:29:38.414Z,1015.94
2019-02-20T08:30:38.380Z,1015.97
2019-02-20T08:31:38.369Z,1015.94
2019-02-20T08:32:38.350Z,1015.95
2019-02-20T08:33:38.343Z,1015.91
2019-02-20T08:34:38.333Z,1015.96
2019-02-20T08:35:38.352Z,1015.98
2019-02-20T08:36:38.313Z,1016.03
2019-02-20T08:37:38.298Z,1015.92
2019-02-20T08:38:38.288Z,1016.04
2019-02-20T08:39:38.279Z,1015.98
2019-02-20T08:40:38.286Z,1015.96
2019-02-20T08:41:38.276Z,1015.99
2019-02-20T08:42:38.242Z,1016.02
2019-02-20T08:43:38.244Z,1016.00
2019-02-20T08:44:38.234Z,1015.95
2019-02-20T08:45:38.248Z,1016.04
2019-02-20T08:46:38.201Z,1016.03
2019-02-20T08:47:38.198Z,1015.99
2019-02-20T08:48:38.174Z,1015.98
2019-02-20T08:49:38.174Z,1016.04
2019-02-20T08:50:38.177Z,1016.05
2019-02-20T08:51:38.154Z,1016.04
2019-02-20T08:52:38.132Z,1016.03
2019-02-20T08:53:38.127Z,1015.96
2019-02-20T08:54:38.110Z,1015.99
2019-02-20T08:55:38.132Z,1015.95
2019-02-20T08:56:38.090Z,1016.03
2019-02-20T08:57:38.089Z,1016.05
2019-02-20T08:58:38.068Z,1016.04
2019-02-20T08:59:38.065Z,1016.01
2019-02-20T09:00:38.071Z,1016.11
2019-02-20T09:01:38.040Z,1016.02
2019-02-20T09:02:38.022Z,1016.07
2019-02-20T09:03:38.015Z,1016.09
2019-02-20T09:04:38.010Z,1016.11
2019-02-20T09:05:38.018Z,1016.03
2019-02-20T09:06:37.977Z,1016.04
2019-02-20T09:07:37.979Z,1016.12
2019-02-20T09:08:37.960Z,1016.09
2019-02-20T09:09:37.954Z,1016.03
2019-02-20T09:10:37.960Z,1016.12
2019-02-20T09:11:37.932Z,1016.06
2019-02-20T09:12:37.916Z,1016.13
2019-02-20T09:13:37.910Z,1016.13
2019-02-20T09:14:37.893Z,1016.15
2019-02-20T09:15:37.915Z,1016.14
2019-02-20T09:16:37.897Z,1016.13
2019-02-20T09:18:38.975Z,1016.12
2019-02-20T09:19:37.842Z,1016.19
2019-02-20T09:20:37.840Z,1016.22
2019-02-20T09:21:37.848Z,1016.17
2019-02-20T09:22:39.492Z,1016.18
2019-02-20T09:23:37.803Z,1016.19
2019-02-20T09:24:37.783Z,1016.28
2019-02-20T09:25:41.626Z,1016.20
2019-02-20T09:26:37.807Z,1016.21
2019-02-20T09:27:37.760Z,1016.25
2019-02-20T09:28:37.740Z,1016.27
2019-02-20T09:29:37.757Z,1016.27
2019-02-20T09:30:37.714Z,1016.30
2019-02-20T09:31:37.743Z,1016.19
2019-02-20T09:32:37.700Z,1016.28
2019-02-20T09:33:37.688Z,1016.28
2019-02-20T09:34:37.682Z,1016.25
2019-02-20T09:35:37.670Z,1016.28
2019-02-20T09:37:38.803Z,1016.27
2019-02-20T09:38:37.761Z,1016.26
2019-02-20T09:39:37.752Z,1016.26
2019-02-20T09:40:37.750Z,1016.27
2019-02-20T09:41:37.727Z,1016.28
2019-02-20T09:42:37.734Z,1016.19
2019-02-20T09:43:37.589Z,1016.23
2019-02-20T09:44:37.580Z,1016.18
2019-02-20T09:45:41.853Z,1016.29
2019-02-20T09:46:38.548Z,1016.27
2019-02-20T09:47:37.584Z,1016.30
2019-02-20T09:48:37.523Z,1016.32
2019-02-20T09:49:37.511Z,1016.32
2019-02-20T09:51:38.624Z,1016.31
2019-02-20T09:52:37.504Z,1016.27
2019-02-20T09:53:37.464Z,1016.33
2019-02-20T09:54:37.472Z,1016.32
2019-02-20T09:55:37.447Z,1016.29
2019-02-20T09:56:37.446Z,1016.34
2019-02-20T09:57:37.455Z,1016.33
2019-02-20T09:58:37.441Z,1016.27
2019-02-20T09:59:37.408Z,1016.32
2019-02-20T10:00:37.395Z,1016.32
2019-02-20T10:01:37.385Z,1016.32
2019-02-20T10:02:37.406Z,1016.31
2019-02-20T10:03:37.387Z,1016.33
2019-02-20T10:04:37.360Z,1016.31
2019-02-20T10:05:37.332Z,1016.32
2019-02-20T10:06:37.340Z,1016.31
2019-02-20T10:07:37.350Z,1016.32
2019-02-20T10:08:37.321Z,1016.33
2019-02-20T10:09:37.299Z,1016.36
2019-02-20T10:10:37.290Z,1016.33
2019-02-20T10:11:37.277Z,1016.30
2019-02-20T10:12:37.308Z,1016.38
2019-02-20T10:13:37.280Z,1016.41
2019-02-20T10:14:37.262Z,1016.39
2019-02-20T10:15:37.232Z,1016.41
2019-02-20T10:16:37.223Z,1016.43
2019-02-20T10:17:37.206Z,1016.37
2019-02-20T10:18:37.229Z,1016.46
2019-02-20T10:19:37.187Z,1016.44
2019-02-20T10:20:37.195Z,1016.41
2019-02-20T10:21:37.164Z,1016.52
2019-02-20T10:22:37.156Z,1016.52
2019-02-20T10:23:37.168Z,1016.57
2019-02-20T10:24:37.140Z,1016.50
2019-02-20T10:25:37.123Z,1016.55
2019-02-20T10:26:37.116Z,1016.50
2019-02-20T10:27:37.101Z,1016.50
2019-02-20T10:28:37.271Z,1016.56
2019-02-20T10:29:37.090Z,1016.53
2019-02-20T10:30:37.070Z,1016.54
2019-02-20T10:31:37.059Z,1016.58
2019-02-20T10:32:37.076Z,1016.57
2019-02-20T10:33:37.037Z,1016.56
2019-02-20T10:34:37.082Z,1016.57
2019-02-20T10:35:37.017Z,1016.63
2019-02-20T10:36:37.027Z,1016.61
2019-02-20T10:37:36.999Z,1016.66
2019-02-20T10:38:37.025Z,1016.63
2019-02-20T10:39:36.967Z,1016.68
2019-02-20T10:40:36.967Z,1016.66
2019-02-20T10:41:36.949Z,1016.65
2019-02-20T10:42:36.948Z,1016.66
2019-02-20T10:43:36.951Z,1016.69
2019-02-20T10:44:36.962Z,1016.72
2019-02-20T10:45:36.901Z,1016.67
2019-02-20T10:46:36.900Z,1016.70
2019-02-20T10:47:36.883Z,1016.72
2019-02-20T10:48:36.884Z,1016.69
2019-02-20T10:49:36.897Z,1016.68
2019-02-20T10:50:36.889Z,1016.64
2019-02-20T10:51:36.832Z,1016.69
2019-02-20T10:52:36.836Z,1016.72
2019-02-20T10:53:36.815Z,1016.74
2019-02-20T10:54:36.848Z,1016.75
2019-02-20T10:55:36.798Z,1016.75
2019-02-20T10:56:36.789Z,1016.71
2019-02-20T10:57:36.776Z,1016.80
2019-02-20T10:58:36.771Z,1016.77
2019-02-20T10:59:36.780Z,1016.73
2019-02-20T11:01:37.856Z,1016.78
2019-02-20T11:02:36.722Z,1016.75
2019-02-20T11:03:36.707Z,1016.68
2019-02-20T11:04:36.728Z,1016.72
2019-02-20T11:05:36.698Z,1016.73
2019-02-20T11:06:36.675Z,1016.79
2019-02-20T11:07:36.661Z,1016.82
2019-02-20T11:08:36.661Z,1016.75
2019-02-20T11:09:36.664Z,1016.71
2019-02-20T11:10:36.670Z,1016.75
2019-02-20T11:11:36.613Z,1016.73
2019-02-20T11:12:36.616Z,1016.76
2019-02-20T11:13:36.591Z,1016.73
2019-02-20T11:14:37.810Z,1016.72
2019-02-20T11:15:36.574Z,1016.73
2019-02-20T11:16:36.574Z,1016.75
2019-02-20T11:17:37.177Z,1016.71
2019-02-20T11:18:36.546Z,1016.76
2019-02-20T11:19:36.558Z,1016.70
2019-02-20T11:20:36.545Z,1016.69
2019-02-20T11:21:36.503Z,1016.72
2019-02-20T11:22:36.501Z,1016.69
2019-02-20T11:23:36.501Z,1016.73
2019-02-20T11:24:36.480Z,1016.68
2019-02-20T11:25:36.507Z,1016.71
2019-02-20T11:26:43.493Z,1016.75
2019-02-20T11:27:39.379Z,1016.73
2019-02-20T11:28:36.434Z,1016.71
2019-02-20T11:29:36.417Z,1016.73
2019-02-20T11:30:36.437Z,1016.73
2019-02-20T11:31:36.404Z,1016.66
2019-02-20T11:32:36.395Z,1016.68
2019-02-20T11:33:36.380Z,1016.68
2019-02-20T11:35:37.569Z,1016.67
2019-02-20T11:36:36.351Z,1016.70
2019-02-20T11:37:36.332Z,1016.65
2019-02-20T11:38:36.374Z,1016.70
2019-02-20T11:39:37.912Z,1016.67
2019-02-20T11:40:36.346Z,1016.65
2019-02-20T11:41:36.287Z,1016.58
2019-02-20T11:42:36.312Z,1016.67
2019-02-20T11:43:36.268Z,1016.70
2019-02-20T11:45:37.380Z,1016.69
2019-02-20T11:47:37.415Z,1016.66
2019-02-20T11:49:37.329Z,1016.68
2019-02-20T11:50:36.333Z,1016.66
2019-02-20T11:51:36.338Z,1016.63
2019-02-20T11:52:38.295Z,1016.70
2019-02-20T11:53:37.368Z,1016.64
2019-02-20T11:54:36.280Z,1016.63
2019-02-20T11:55:36.144Z,1016.61
2019-02-20T11:56:36.171Z,1016.65
2019-02-20T11:57:36.121Z,1016.61
2019-02-20T11:58:36.111Z,1016.66
2019-02-20T11:59:36.090Z,1016.63
2019-02-20T12:00:36.127Z,1016.70
2019-02-20T12:02:37.627Z,1016.66
2019-02-20T12:03:36.066Z,1016.66
2019-02-20T12:04:36.071Z,1016.68
2019-02-20T12:06:37.145Z,1016.67
2019-02-20T12:07:37.072Z,1016.62
2019-02-20T12:08:36.189Z,1016.67
2019-02-20T12:10:37.105Z,1016.62
2019-02-20T12:11:36.302Z,1016.57
2019-02-20T12:12:36.314Z,1016.56
2019-02-20T12:13:36.103Z,1016.52
2019-02-20T12:14:36.138Z,1016.59
2019-02-20T12:15:36.025Z,1016.52
2019-02-20T12:16:35.903Z,1016.60
2019-02-20T12:18:37.020Z,1016.56
2019-02-20T12:19:36.009Z,1016.62
2019-02-20T12:20:36.005Z,1016.52
2019-02-20T12:21:35.996Z,1016.50
2019-02-20T12:22:35.999Z,1016.56
2019-02-20T12:23:36.865Z,1016.45
2019-02-20T12:24:35.819Z,1016.45